LECO/LCG METAR and TAF weather

Enter ICAO airport designator
Station Type Date Time Source
LECO METAR 2022/01/29 10:00 UTC NOAA

LECO 291000Z 17004KT 140V200 CAVOK 03/01 Q1034 NOSIG


Station Type Date Time Source
LECO Decoded METAR 2022/01/29 10:00 UTC NOAA

La Coruna / Alvedro, Spain (LECO) 43-18N 008-23W 103M
Jan 29, 2022 - 05:00 AM EST / 2022.01.29 1000 UTC
Wind: from the S (170 degrees) at 5 MPH (4 KT) (direction variable):0
Visibility: greater than 7 mile(s):0
Temperature: 37 F (3 C)
Dew Point: 33 F (1 C)
Relative Humidity: 86%
Pressure (altimeter): 30.53 in. Hg (1034 hPa)
ob: LECO 291000Z 17004KT 140V200 CAVOK 03/01 Q1034 NOSIG
cycle: 10

Station Type Date Time Source
LECO TAF 2022/01/29 09:27 UTC NOAA

TAF LECO 290800Z 2909/3009 VRB05KT CAVOK TX15/2915Z TNM00/3006Z

Example: see airport list